Vidnoe — UBDU — position and weather

sailwx.info

Track history (hours):
 
Tides and Currents Weather Stations Pressure Air Temp Water Temp Dewpoint Dewpoint Depression Visibility Wind Speed Wind Dir Waves Ship Positions

Vidnoe

Last reported at 2018-Apr-25 23:59 UTC. Time now 2018-Apr-26 00:11 UTC.
Position N 60°02' E 029°02'.

Length 115 m; beam 17 m.

Type: Tanker. MMSI: 273516400.

Date/timePositionNaut miles runAvg speedWind from/ knotsBaromVisibWave heightAir tempDewpointWater temp
2018-Apr-25 23:59N 60°02' E 029°02'1411.3
2018-Apr-25 22:45N 60°02' E 029°30'411.1
2018-Apr-25 22:22N 60°00' E 029°38'410.3
2018-Apr-25 22:00N 59°59' E 029°45'510.2
2018-Apr-25 21:30N 59°57' E 029°54'510.9
2018-Apr-25 21:00N 59°54' E 030°04'4 7.1
2018-Apr-25 20:30N 59°53' E 030°11'1 2.5
2018-Apr-25 19:55N 59°53' E 030°13'0 0.0
2018-Apr-25 19:22N 59°53' E 030°13'0 0.0
2018-Apr-25 18:58N 59°53' E 030°13'0 0.0
2018-Apr-25 18:28N 59°53' E 030°13'0 0.0
2018-Apr-25 17:58N 59°53' E 030°13'0 0.0
2018-Apr-25 17:25N 59°53' E 030°13'0 0.0
2018-Apr-25 16:58N 59°53' E 030°13'0 0.0
2018-Apr-25 16:11N 59°53' E 030°13'0 0.0
2018-Apr-25 15:55N 59°53' E 030°13'0 0.0
2018-Apr-25 15:25N 59°53' E 030°13'0 0.0
2018-Apr-25 14:52N 59°53' E 030°13'0 0.0
2018-Apr-25 14:29N 59°53' E 030°13'0 0.0
2018-Apr-25 13:52N 59°53' E 030°13'0 0.0
2018-Apr-25 13:17N 59°53' E 030°13'0 0.0
2018-Apr-25 12:58N 59°53' E 030°13'0 0.0
2018-Apr-25 12:28N 59°53' E 030°13'0 0.0
2018-Apr-25 11:58N 59°53' E 030°13'0 0.0
2018-Apr-25 11:25N 59°53' E 030°13'0 0.0
2018-Apr-25 10:58N 59°53' E 030°13'0 0.0
2018-Apr-25 10:25N 59°53' E 030°13'0 0.0
2018-Apr-25 09:58N 59°53' E 030°13'0 0.0
2018-Apr-25 09:25N 59°53' E 030°13'0 0.0
2018-Apr-25 08:58N 59°53' E 030°13'0 0.0
2018-Apr-25 08:28N 59°53' E 030°13'0 0.0
2018-Apr-25 07:55N 59°53' E 030°13'0 0.0
2018-Apr-25 07:28N 59°53' E 030°13'0 0.0
2018-Apr-25 06:58N 59°53' E 030°13'0 0.0
2018-Apr-25 06:28N 59°53' E 030°13'0 0.0
2018-Apr-25 05:58N 59°53' E 030°13'0 0.0
2018-Apr-25 05:25N 59°53' E 030°13'0 0.0
2018-Apr-25 04:55N 59°53' E 030°13'0 0.0
2018-Apr-25 04:28N 59°53' E 030°13'0 0.0
2018-Apr-25 03:58N 59°53' E 030°13'0 0.0
2018-Apr-25 03:13N 59°53' E 030°13'0 0.0
2018-Apr-25 02:43N 59°53' E 030°13'0 0.0
2018-Apr-25 01:03N 59°53' E 030°13'0 0.0
2018-Apr-25 00:43N 59°53' E 030°13'0 0.0
2018-Apr-25 00:25N 59°53' E 030°13'0 0.0
2018-Apr-24 23:58N 59°53' E 030°13'0 0.0
2018-Apr-24 23:22N 59°53' E 030°13'0 0.0
2018-Apr-24 22:49N 59°53' E 030°13'0 0.0
2018-Apr-24 22:19N 59°53' E 030°13'0 0.0
2018-Apr-24 21:58N 59°53' E 030°13'0 0.0
2018-Apr-24 21:28N 59°53' E 030°13'0 0.0
2018-Apr-24 20:58N 59°53' E 030°13'0 0.0
2018-Apr-24 20:29N 59°53' E 030°13'0 0.0
2018-Apr-24 19:56N 59°53' E 030°13'0 0.0
2018-Apr-24 19:28N 59°53' E 030°13'0 0.0
2018-Apr-24 18:58N 59°53' E 030°13'0 0.0
2018-Apr-24 18:28N 59°53' E 030°13'0 0.0
2018-Apr-24 17:55N 59°53' E 030°13'0 0.0
2018-Apr-24 17:28N 59°53' E 030°13'0 0.0
2018-Apr-24 16:58N 59°53' E 030°13'0 0.0
2018-Apr-24 16:28N 59°53' E 030°13'0 0.0
2018-Apr-24 16:00N 59°53' E 030°13'1 1.3
2018-Apr-24 15:30N 59°53' E 030°13'3 6.3
2018-Apr-24 15:00N 59°54' E 030°07'4 8.9
2018-Apr-24 14:30N 59°56' E 029°59'510.5
2018-Apr-24 14:00N 59°57' E 029°49'5 9.3
2018-Apr-24 13:29N 59°60' E 029°40'11 1.7
2018-Apr-24 07:20N 60°01' E 029°19'0 0.0
2018-Apr-24 07:00N 60°01' E 029°19'0 0.0
2018-Apr-24 05:41N 60°01' E 029°19'0 0.0
2018-Apr-24 05:31N 60°01' E 029°19'0 0.0
2018-Apr-24 05:00N 60°01' E 029°19'0 0.0
2018-Apr-24 04:30N 60°01' E 029°19'0 0.0
2018-Apr-24 04:00N 60°01' E 029°19'4 6.0
2018-Apr-24 03:25N 60°02' E 029°12'512.4
2018-Apr-24 02:59N 60°02' E 029°02'612.6
2018-Apr-24 02:31N 60°02' E 028°50'612.3
2018-Apr-24 02:00N 60°02' E 028°37'611.9
2018-Apr-24 01:30N 60°03' E 028°26'611.7
2018-Apr-24 01:01N 60°07' E 028°17'612.0
2018-Apr-24 00:30N 60°09' E 028°05'611.9
2018-Apr-24 00:00N 60°10' E 027°54'611.3
2018-Apr-23 23:30N 60°10' E 027°42'612.5
2018-Apr-23 23:00N 60°07' E 027°32'612.4
2018-Apr-23 22:30N 60°03' E 027°21'612.4
2018-Apr-23 22:00N 60°00' E 027°11'611.8
2018-Apr-23 21:30N 59°58' E 026°59'612.4
2018-Apr-23 21:00N 59°59' E 026°47'611.8
2018-Apr-23 20:30N 59°59' E 026°36'5 9.7
2018-Apr-23 20:01N 59°55' E 026°29'713.1
2018-Apr-23 19:30N 59°49' E 026°31'611.7
2018-Apr-23 19:01N 59°44' E 026°39'713.3
2018-Apr-23 18:30N 59°41' E 026°51'613.1
2018-Apr-23 18:00N 59°39' E 027°02'612.9
2018-Apr-23 17:31N 59°36' E 027°14'612.9
2018-Apr-23 17:00N 59°33' E 027°25'713.1
2018-Apr-23 16:30N 59°30' E 027°37'510.5
2018-Apr-23 16:00N 59°26' E 027°44'1 1.6
2018-Apr-23 15:30N 59°25' E 027°44'0 0.0
2018-Apr-23 14:58N 59°25' E 027°44'0 0.0
2018-Apr-23 14:25N 59°25' E 027°44'0 0.0
2018-Apr-23 13:58N 59°25' E 027°44'0 0.0
2018-Apr-23 13:28N 59°25' E 027°44'0 0.0
2018-Apr-23 12:49N 59°25' E 027°44'0 0.0
2018-Apr-23 12:19N 59°25' E 027°44'0 0.0
2018-Apr-23 11:52N 59°25' E 027°44'0 0.0
2018-Apr-23 11:22N 59°25' E 027°44'0 0.0
2018-Apr-23 10:55N 59°25' E 027°44'0 0.0
2018-Apr-23 10:28N 59°25' E 027°44'0 0.0
2018-Apr-23 09:55N 59°25' E 027°44'0 0.0
2018-Apr-23 09:25N 59°25' E 027°44'0 0.0
2018-Apr-23 08:58N 59°25' E 027°44'0 0.0
2018-Apr-23 08:28N 59°25' E 027°44'0 0.0
2018-Apr-23 07:58N 59°25' E 027°44'0 0.0
2018-Apr-23 07:28N 59°25' E 027°44'0 0.0
2018-Apr-23 06:58N 59°25' E 027°44'0 0.0
2018-Apr-23 06:28N 59°25' E 027°44'0 0.0
2018-Apr-23 05:58N 59°25' E 027°44'0 0.0
2018-Apr-23 05:28N 59°25' E 027°44'0 0.0
2018-Apr-23 04:58N 59°25' E 027°44'0 0.0
2018-Apr-23 04:28N 59°25' E 027°44'0 0.0
2018-Apr-23 03:58N 59°25' E 027°44'0 0.0
2018-Apr-23 03:28N 59°25' E 027°44'0 0.0
2018-Apr-23 02:49N 59°25' E 027°44'0 0.0
2018-Apr-23 02:25N 59°25' E 027°44'0 0.0
2018-Apr-23 01:58N 59°25' E 027°44'0 0.0
2018-Apr-23 01:25N 59°25' E 027°44'0 0.0
2018-Apr-23 00:58N 59°25' E 027°44'0 0.0
2018-Apr-23 00:28N 59°25' E 027°44'0 0.0
2018-Apr-22 23:58N 59°25' E 027°44'0 0.0
2018-Apr-22 23:28N 59°25' E 027°44'0 0.0
2018-Apr-22 22:58N 59°25' E 027°44'0 0.0
2018-Apr-22 22:28N 59°25' E 027°44'0 0.0
2018-Apr-22 21:58N 59°25' E 027°44'0 0.0
2018-Apr-22 21:25N 59°25' E 027°44'0 0.0
2018-Apr-22 20:58N 59°25' E 027°44'0 0.0
2018-Apr-22 20:28N 59°25' E 027°44'0 0.0
2018-Apr-22 19:55N 59°25' E 027°44'0 0.0
2018-Apr-22 19:22N 59°25' E 027°44'0 0.0
2018-Apr-22 18:55N 59°25' E 027°44'0 0.0
2018-Apr-22 18:28N 59°25' E 027°44'0 0.0
2018-Apr-22 17:58N 59°25' E 027°44'0 0.0
2018-Apr-22 17:28N 59°25' E 027°44'0 0.0
2018-Apr-22 16:43N 59°25' E 027°44'0 0.0
2018-Apr-22 16:28N 59°25' E 027°44'0 0.0
2018-Apr-22 15:58N 59°25' E 027°44'0 0.0
2018-Apr-22 15:28N 59°25' E 027°44'0 0.0
2018-Apr-22 14:58N 59°25' E 027°44'0 0.0
2018-Apr-22 14:30N 59°25' E 027°44'1 1.7
2018-Apr-22 14:00N 59°26' E 027°44'3 5.9
2018-Apr-22 13:30N 59°29' E 027°43'1 1.4
2018-Apr-22 12:58N 59°30' E 027°42'0 0.1
2018-Apr-22 12:28N 59°30' E 027°42'0 0.0
2018-Apr-22 11:34N 59°30' E 027°42'0 0.0
2018-Apr-22 11:19N 59°30' E 027°42'0 0.0
2018-Apr-22 10:49N 59°30' E 027°42'0 0.0
2018-Apr-22 10:22N 59°30' E 027°42'0 0.0
2018-Apr-22 09:52N 59°30' E 027°42'0 0.0
2018-Apr-22 09:22N 59°30' E 027°42'0 0.0
2018-Apr-22 08:46N 59°30' E 027°42'0 0.0
2018-Apr-22 08:22N 59°30' E 027°42'0 0.1
2018-Apr-22 07:52N 59°30' E 027°42'0 0.0
2018-Apr-22 07:25N 59°30' E 027°42'0 0.0
2018-Apr-22 06:55N 59°30' E 027°42'0 0.0
2018-Apr-22 06:25N 59°30' E 027°42'0 0.0
2018-Apr-22 05:55N 59°30' E 027°42'0 0.0
2018-Apr-22 05:25N 59°30' E 027°42'0 0.1
2018-Apr-22 04:55N 59°30' E 027°42'0 0.0
2018-Apr-22 04:22N 59°30' E 027°42'0 0.0
2018-Apr-22 03:58N 59°30' E 027°42'0 0.0
2018-Apr-22 03:28N 59°30' E 027°42'0 0.0
2018-Apr-22 02:58N 59°30' E 027°42'0 0.0
2018-Apr-22 02:28N 59°30' E 027°42'0 0.0
2018-Apr-22 01:58N 59°30' E 027°42'0 0.0
2018-Apr-22 01:28N 59°30' E 027°42'0 0.1
2018-Apr-22 01:00N 59°30' E 027°42'1 2.9
2018-Apr-22 00:31N 59°30' E 027°40'5 9.7
2018-Apr-22 00:00N 59°32' E 027°31'611.7
2018-Apr-21 23:30N 59°34' E 027°20'611.7
2018-Apr-21 23:00N 59°37' E 027°10'611.7
2018-Apr-21 22:30N 59°39' E 026°60'611.8
2018-Apr-21 22:00N 59°42' E 026°49'611.9
2018-Apr-21 21:30N 59°45' E 026°38'510.6
2018-Apr-21 21:01N 59°49' E 026°32'611.7
2018-Apr-21 20:30N 59°54' E 026°30'611.6
2018-Apr-21 20:00N 60°00' E 026°29'5 9.6
2018-Apr-21 19:30N 60°01' E 026°39'611.1
2018-Apr-21 18:59N 60°00' E 026°50'511.0
2018-Apr-21 18:30N 59°59' E 027°01'510.5
2018-Apr-21 18:00N 60°02' E 027°10'611.2
2018-Apr-21 17:30N 60°05' E 027°20'611.5
2018-Apr-21 17:01N 60°08' E 027°29'611.5
2018-Apr-21 16:30N 60°11' E 027°39'510.8
2018-Apr-21 16:00N 60°11' E 027°50'611.7
2018-Apr-21 15:30N 60°10' E 028°02'611.7
2018-Apr-21 15:00N 60°09' E 028°13'611.3
2018-Apr-21 14:30N 60°06' E 028°23'611.2
2018-Apr-21 14:00N 60°03' E 028°33'611.8
2018-Apr-21 13:30N 60°03' E 028°44'611.6
2018-Apr-21 12:57N 60°03' E 028°57'1610.4
2018-Apr-21 11:23N 60°02' E 029°30'410.6
2018-Apr-21 10:59N 60°00' E 029°38'4 9.3
2018-Apr-21 10:30N 59°58' E 029°46'610.2
2018-Apr-21 09:54N 59°56' E 029°57'410.2
2018-Apr-21 09:30N 59°54' E 030°05'3 6.0
2018-Apr-21 09:00N 59°53' E 030°10'2 2.0
2018-Apr-21 08:13N 59°53' E 030°13'0 0.0
2018-Apr-21 07:58N 59°53' E 030°13'0 0.0
2018-Apr-21 07:25N 59°53' E 030°13'0 0.0
2018-Apr-21 06:55N 59°53' E 030°13'0 0.0
2018-Apr-21 06:25N 59°53' E 030°13'0 0.0
2018-Apr-21 05:56N 59°53' E 030°13'0 0.0
2018-Apr-21 05:29N 59°53' E 030°13'0 0.0
2018-Apr-21 04:57N 59°53' E 030°13'0 0.0
2018-Apr-21 04:28N 59°53' E 030°13'0 0.0
2018-Apr-21 03:56N 59°53' E 030°13'0 0.0
2018-Apr-21 02:56N 59°53' E 030°13'0 0.0
2018-Apr-21 01:45N 59°53' E 030°13'0 0.0
2018-Apr-21 01:23N 59°53' E 030°13'0 0.0
2018-Apr-21 00:58N 59°53' E 030°13'0 0.0
2018-Apr-21 00:26N 59°53' E 030°13'0 0.0
2018-Apr-20 23:46N 59°53' E 030°13'0 0.0
2018-Apr-20 23:22N 59°53' E 030°13'0 0.0
2018-Apr-20 22:58N 59°53' E 030°13'0 0.0
2018-Apr-20 22:22N 59°53' E 030°13'0 0.0
2018-Apr-20 21:55N 59°53' E 030°13'0 0.0
2018-Apr-20 21:28N 59°53' E 030°13'0 0.0
2018-Apr-20 20:58N 59°53' E 030°13'0 0.0
2018-Apr-20 20:25N 59°53' E 030°13'0 0.0
2018-Apr-20 19:58N 59°53' E 030°13'0 0.0
2018-Apr-20 19:28N 59°53' E 030°13'0 0.0
2018-Apr-20 18:58N 59°53' E 030°13'0 0.0
2018-Apr-20 18:28N 59°53' E 030°13'0 0.0
2018-Apr-20 17:55N 59°53' E 030°13'0 0.0
2018-Apr-20 17:28N 59°53' E 030°13'0 0.0
2018-Apr-20 16:58N 59°53' E 030°13'0 0.0
2018-Apr-20 16:13N 59°53' E 030°13'0 0.0
2018-Apr-20 15:58N 59°53' E 030°13'0 0.0
2018-Apr-20 15:28N 59°53' E 030°13'0 0.0
2018-Apr-20 14:55N 59°53' E 030°13'0 0.0
2018-Apr-20 14:28N 59°53' E 030°13'0 0.0
2018-Apr-20 13:58N 59°53' E 030°13'0 0.0
2018-Apr-20 13:28N 59°53' E 030°13'0 0.0
2018-Apr-20 12:58N 59°53' E 030°13'0 0.0
2018-Apr-20 12:22N 59°53' E 030°13'0 0.0
2018-Apr-20 11:58N 59°53' E 030°13'0 0.0
2018-Apr-20 11:28N 59°53' E 030°13'0 0.0
2018-Apr-20 10:58N 59°53' E 030°13'0 0.0
2018-Apr-20 10:25N 59°53' E 030°13'0 0.0
2018-Apr-20 09:58N 59°53' E 030°13'0 0.0
2018-Apr-20 09:28N 59°53' E 030°13'0 0.0
2018-Apr-20 08:58N 59°53' E 030°13'0 0.0
2018-Apr-20 08:28N 59°53' E 030°13'0 0.0
2018-Apr-20 07:55N 59°53' E 030°13'0 0.0
2018-Apr-20 07:28N 59°53' E 030°13'0 0.0
2018-Apr-20 06:58N 59°53' E 030°13'0 0.0
2018-Apr-20 06:22N 59°53' E 030°13'0 0.0
2018-Apr-20 05:58N 59°53' E 030°13'0 0.0
2018-Apr-20 05:28N 59°53' E 030°13'0 0.0
2018-Apr-20 04:58N 59°53' E 030°13'0 0.0
2018-Apr-20 04:16N 59°53' E 030°13'0 0.0
2018-Apr-20 03:58N 59°53' E 030°13'0 0.0
2018-Apr-20 03:28N 59°53' E 030°13'0 0.0
2018-Apr-20 02:46N 59°53' E 030°13'0 0.0
2018-Apr-20 02:10N 59°53' E 030°13'0 0.0
2018-Apr-20 01:58N 59°53' E 030°13'0 0.0
2018-Apr-20 01:28N 59°53' E 030°13'0 0.0
2018-Apr-20 00:55N 59°53' E 030°13'0 0.0
2018-Apr-20 00:25N 59°53' E 030°13'0 0.0
2018-Apr-19 23:58N 59°53' E 030°13'0 0.0
2018-Apr-19 23:28N 59°53' E 030°13'0 0.0
2018-Apr-19 22:58N 59°53' E 030°13'0 0.0
2018-Apr-19 22:28N 59°53' E 030°13'0 0.0
2018-Apr-19 21:58N 59°53' E 030°13'0 0.0
2018-Apr-19 21:28N 59°53' E 030°13'0 0.0
2018-Apr-19 20:49N 59°53' E 030°13'0 0.0
2018-Apr-19 20:25N 59°53' E 030°13'0 0.0
2018-Apr-19 19:47N 59°53' E 030°13'0 0.0
2018-Apr-19 19:05N 59°53' E 030°13'0 0.0
2018-Apr-19 18:57N 59°53' E 030°13'0 0.0
2018-Apr-19 18:16N 59°53' E 030°13'0 0.0
2018-Apr-19 17:47N 59°53' E 030°13'0 0.0
2018-Apr-19 16:55N 59°53' E 030°13'0 0.0
2018-Apr-19 16:30N 59°53' E 030°13'0 0.0
2018-Apr-19 15:52N 59°53' E 030°13'0 0.0
2018-Apr-19 15:23N 59°53' E 030°13'0 0.0
2018-Apr-19 14:58N 59°53' E 030°13'0 0.0
2018-Apr-19 14:28N 59°53' E 030°13'0 0.0
2018-Apr-19 13:49N 59°53' E 030°13'0 0.0
2018-Apr-19 13:25N 59°53' E 030°13'0 0.0
2018-Apr-19 12:58N 59°53' E 030°13'0 0.0
2018-Apr-19 12:28N 59°53' E 030°13'0 0.0
2018-Apr-19 11:55N 59°53' E 030°13'0 0.1
2018-Apr-19 11:28N 59°53' E 030°13'0 0.1
2018-Apr-19 10:55N 59°53' E 030°13'0 0.0
2018-Apr-19 10:22N 59°53' E 030°13'0 0.0
2018-Apr-19 09:58N 59°53' E 030°13'0 0.0
2018-Apr-19 09:22N 59°53' E 030°13'0 0.0
2018-Apr-19 08:58N 59°53' E 030°13'0 0.0
2018-Apr-19 08:28N 59°53' E 030°13'0 0.0
2018-Apr-19 07:58N 59°53' E 030°13'0 0.0
2018-Apr-19 07:28N 59°53' E 030°13'0 0.0
2018-Apr-19 06:58N 59°53' E 030°13'0 0.1
2018-Apr-19 06:30N 59°53' E 030°13'2 3.8
2018-Apr-19 06:00N 59°53' E 030°10'4 7.4
2018-Apr-19 05:30N 59°55' E 030°03'5 9.7
2018-Apr-19 04:59N 59°57' E 029°54'5 9.0
2018-Apr-19 04:29N 59°59' E 029°46'610.0
2018-Apr-19 03:56N 60°01' E 029°35'611.8
2018-Apr-19 03:26N 60°02' E 029°24'613.0
2018-Apr-19 03:01N 60°02' E 029°13'712.9
2018-Apr-19 02:30N 60°02' E 028°59'713.4
2018-Apr-19 02:00N 60°02' E 028°46'713.5
2018-Apr-19 01:30N 60°03' E 028°33'612.8
2018-Apr-19 01:00N 60°05' E 028°21'612.9
2018-Apr-19 00:30N 60°08' E 028°10'713.1
2018-Apr-19 00:01N 60°10' E 027°57'612.5
2018-Apr-18 23:30N 60°10' E 027°44'713.2
2018-Apr-18 23:01N 60°07' E 027°33'713.3
2018-Apr-18 22:30N 60°03' E 027°22'714.3
2018-Apr-18 21:59N 59°59' E 027°09'611.6
2018-Apr-18 21:30N 59°58' E 026°58'713.2
2018-Apr-18 21:00N 59°59' E 026°45'612.9
2018-Apr-18 20:30N 59°58' E 026°33'510.8
2018-Apr-18 20:00N 59°53' E 026°30'612.8
2018-Apr-18 19:30N 59°47' E 026°32'611.4
2018-Apr-18 19:00N 59°44' E 026°42'611.6
2018-Apr-18 18:30N 59°41' E 026°52'611.4
2018-Apr-18 18:00N 59°39' E 027°02'612.1
2018-Apr-18 17:30N 59°36' E 027°13'612.4
2018-Apr-18 16:59N 59°33' E 027°25'612.3
2018-Apr-18 16:30N 59°31' E 027°35'510.7
2018-Apr-18 16:00N 59°27' E 027°43'2 3.6
2018-Apr-18 15:30N 59°25' E 027°44'0 0.0
2018-Apr-18 15:00N 59°25' E 027°44'0 0.0
2018-Apr-18 14:30N 59°25' E 027°44'0 0.0
2018-Apr-18 13:58N 59°25' E 027°44'0 0.0
2018-Apr-18 13:28N 59°25' E 027°44'0 0.0
2018-Apr-18 12:13N 59°25' E 027°44'0 0.0
2018-Apr-18 11:13N 59°25' E 027°44'0 0.0
2018-Apr-18 10:55N 59°25' E 027°44'0 0.0
2018-Apr-18 10:29N 59°25' E 027°44'0 0.0
2018-Apr-18 09:58N 59°25' E 027°44'0 0.0
2018-Apr-18 09:28N 59°25' E 027°44'0 0.0
2018-Apr-18 08:55N 59°25' E 027°44'0 0.0
2018-Apr-18 08:25N 59°25' E 027°44'0 0.0
2018-Apr-18 07:58N 59°25' E 027°44'0 0.0
2018-Apr-18 07:28N 59°25' E 027°44'0 0.0
2018-Apr-18 06:58N 59°25' E 027°44'0 0.0
2018-Apr-18 06:25N 59°25' E 027°44'0 0.0
2018-Apr-18 05:58N 59°25' E 027°44'0 0.0
2018-Apr-18 05:28N 59°25' E 027°44'0 0.0
2018-Apr-18 04:13N 59°25' E 027°44'0 0.0
2018-Apr-18 03:58N 59°25' E 027°44'0 0.0
2018-Apr-18 03:28N 59°25' E 027°44'0 0.0
2018-Apr-18 02:55N 59°25' E 027°44'0 0.0
2018-Apr-18 02:01N 59°25' E 027°44'0 0.0
2018-Apr-18 01:49N 59°25' E 027°44'0 0.0
2018-Apr-18 01:07N 59°25' E 027°44'0 0.0
2018-Apr-18 00:52N 59°25' E 027°44'0 0.0
2018-Apr-18 00:25N 59°25' E 027°44'0 0.0
2018-Apr-17 23:52N 59°25' E 027°44'0 0.0
2018-Apr-17 23:22N 59°25' E 027°44'0 0.0
2018-Apr-17 22:55N 59°25' E 027°44'0 0.0
2018-Apr-17 22:10N 59°25' E 027°44'0 0.0
2018-Apr-17 21:52N 59°25' E 027°44'0 0.0
2018-Apr-17 21:25N 59°25' E 027°44'0 0.0
2018-Apr-17 20:04N 59°25' E 027°44'0 0.0
2018-Apr-17 19:58N 59°25' E 027°44'0 0.0
2018-Apr-17 19:28N 59°25' E 027°44'0 0.0
2018-Apr-17 18:58N 59°25' E 027°44'0 0.0
2018-Apr-17 18:28N 59°25' E 027°44'0 0.0
2018-Apr-17 17:58N 59°25' E 027°44'0 0.0
2018-Apr-17 17:28N 59°25' E 027°44'0 0.0
2018-Apr-17 16:58N 59°25' E 027°44'0 0.0
2018-Apr-17 16:28N 59°25' E 027°44'0 0.0
2018-Apr-17 15:58N 59°25' E 027°44'0 0.0
2018-Apr-17 15:25N 59°25' E 027°44'0 0.0
2018-Apr-17 14:58N 59°25' E 027°44'0 0.0
2018-Apr-17 14:28N 59°25' E 027°44'0 0.0
2018-Apr-17 14:00N 59°25' E 027°44'0 0.0
2018-Apr-17 13:30N 59°25' E 027°44'0 0.3
2018-Apr-17 13:00N 59°26' E 027°44'2 4.2
2018-Apr-17 12:30N 59°27' E 027°42'5 9.8
2018-Apr-17 12:00N 59°31' E 027°35'611.2
2018-Apr-17 11:30N 59°33' E 027°25'611.8
2018-Apr-17 11:00N 59°36' E 027°15'611.9
2018-Apr-17 10:30N 59°38' E 027°04'611.9
2018-Apr-17 10:00N 59°41' E 026°53'611.8
2018-Apr-17 09:30N 59°43' E 026°43'611.6
2018-Apr-17 09:00N 59°46' E 026°33'611.3
2018-Apr-17 08:30N 59°51' E 026°31'611.4
2018-Apr-17 08:00N 59°57' E 026°29'5 9.1
2018-Apr-17 07:30N 60°01' E 026°33'511.0
2018-Apr-17 07:00N 60°01' E 026°44'611.2
2018-Apr-17 06:30N 59°60' E 026°55'510.5
2018-Apr-17 06:00N 60°00' E 027°06'611.3
2018-Apr-17 05:30N 60°03' E 027°15'611.4
2018-Apr-17 05:00N 60°06' E 027°25'611.5
2018-Apr-17 04:30N 60°09' E 027°35'611.6
2018-Apr-17 04:00N 60°12' E 027°45'611.7
2018-Apr-17 03:30N 60°11' E 027°57'611.8
2018-Apr-17 03:00N 60°09' E 028°08'611.4
2018-Apr-17 02:30N 60°07' E 028°19'611.6
2018-Apr-17 02:00N 60°04' E 028°28'611.5
2018-Apr-17 01:30N 60°03' E 028°40'611.6
2018-Apr-17 01:00N 60°03' E 028°51'611.8
2018-Apr-17 00:30N 60°02' E 029°03'612.1
2018-Apr-16 23:59N 60°02' E 029°16'611.9
2018-Apr-16 23:28N 60°02' E 029°28'511.3
2018-Apr-16 23:00N 60°00' E 029°38'510.0
2018-Apr-16 22:30N 59°58' E 029°47'611.2
2018-Apr-16 22:00N 59°56' E 029°57'5 9.7
2018-Apr-16 21:30N 59°54' E 030°06'3 6.3
2018-Apr-16 21:00N 59°53' E 030°12'1 1.6
2018-Apr-16 20:30N 59°53' E 030°13'0 0.0
2018-Apr-16 20:00N 59°53' E 030°13'0 0.0
2018-Apr-16 19:28N 59°53' E 030°13'0 0.0
2018-Apr-16 18:55N 59°53' E 030°13'0 0.0
2018-Apr-16 18:28N 59°53' E 030°13'0 0.0
2018-Apr-16 17:58N 59°53' E 030°13'0 0.0
2018-Apr-16 17:28N 59°53' E 030°13'0 0.0
2018-Apr-16 16:58N 59°53' E 030°13'0 0.0
2018-Apr-16 16:25N 59°53' E 030°13'0 0.0
2018-Apr-16 15:58N 59°53' E 030°13'0 0.0
2018-Apr-16 15:28N 59°53' E 030°13'0 0.0
2018-Apr-16 14:58N 59°53' E 030°13'0 0.0
2018-Apr-16 14:28N 59°53' E 030°13'0 0.0
2018-Apr-16 13:55N 59°53' E 030°13'0 0.0
2018-Apr-16 13:28N 59°53' E 030°13'0 0.0
2018-Apr-16 12:58N 59°53' E 030°13'0 0.0
2018-Apr-16 12:28N 59°53' E 030°13'0 0.0
2018-Apr-16 11:55N 59°53' E 030°13'0 0.0
2018-Apr-16 11:25N 59°53' E 030°13'0 0.0
2018-Apr-16 10:58N 59°53' E 030°13'0 0.0
2018-Apr-16 10:28N 59°53' E 030°13'0 0.0
2018-Apr-16 09:52N 59°53' E 030°13'0 0.0
2018-Apr-16 09:28N 59°53' E 030°13'0 0.0
2018-Apr-16 08:58N 59°53' E 030°13'0 0.0
2018-Apr-16 08:28N 59°53' E 030°13'0 0.0
2018-Apr-16 07:58N 59°53' E 030°13'0 0.0
2018-Apr-16 07:28N 59°53' E 030°13'0 0.0
2018-Apr-16 06:58N 59°53' E 030°13'0 0.0
2018-Apr-16 06:28N 59°53' E 030°13'0 0.0
2018-Apr-16 05:55N 59°53' E 030°13'0 0.0
2018-Apr-16 05:28N 59°53' E 030°13'0 0.0
2018-Apr-16 04:58N 59°53' E 030°13'0 0.0
2018-Apr-16 04:28N 59°53' E 030°13'0 0.0
2018-Apr-16 03:55N 59°53' E 030°13'0 0.0
2018-Apr-16 03:28N 59°53' E 030°13'0 0.0
2018-Apr-16 02:58N 59°53' E 030°13'0 0.0
2018-Apr-16 02:28N 59°53' E 030°13'0 0.0
2018-Apr-16 01:55N 59°53' E 030°13'0 0.0
2018-Apr-16 01:28N 59°53' E 030°13'0 0.0
2018-Apr-16 00:58N 59°53' E 030°13'0 0.0
2018-Apr-16 00:28N 59°53' E 030°13'  
Track history (hours):
 
Tides and Currents Weather Stations Pressure Air Temp Water Temp Dewpoint Dewpoint Depression Visibility Wind Speed Wind Dir Waves Ship Positions

Vidnoe

Last reported at 2018-Apr-25 23:59 UTC. Time now 2018-Apr-26 00:11 UTC.
Position N 60°02' E 029°02'.

Length 115 m; beam 17 m.

Type: Tanker. MMSI: 273516400.

Date/timePositionNaut miles runAvg speedWind from/ knotsBaromVisibWave heightAir tempDewpointWater temp
2018-Apr-25 23:59N 60°02' E 029°02'1411.3
2018-Apr-25 22:45N 60°02' E 029°30'411.1
2018-Apr-25 22:22N 60°00' E 029°38'410.3
2018-Apr-25 22:00N 59°59' E 029°45'510.2
2018-Apr-25 21:30N 59°57' E 029°54'510.9
2018-Apr-25 21:00N 59°54' E 030°04'4 7.1
2018-Apr-25 20:30N 59°53' E 030°11'1 2.5
2018-Apr-25 19:55N 59°53' E 030°13'0 0.0
2018-Apr-25 19:22N 59°53' E 030°13'0 0.0
2018-Apr-25 18:58N 59°53' E 030°13'0 0.0
2018-Apr-25 18:28N 59°53' E 030°13'0 0.0
2018-Apr-25 17:58N 59°53' E 030°13'0 0.0
2018-Apr-25 17:25N 59°53' E 030°13'0 0.0
2018-Apr-25 16:58N 59°53' E 030°13'0 0.0
2018-Apr-25 16:11N 59°53' E 030°13'0 0.0
2018-Apr-25 15:55N 59°53' E 030°13'0 0.0
2018-Apr-25 15:25N 59°53' E 030°13'0 0.0
2018-Apr-25 14:52N 59°53' E 030°13'0 0.0
2018-Apr-25 14:29N 59°53' E 030°13'0 0.0
2018-Apr-25 13:52N 59°53' E 030°13'0 0.0
2018-Apr-25 13:17N 59°53' E 030°13'0 0.0
2018-Apr-25 12:58N 59°53' E 030°13'0 0.0
2018-Apr-25 12:28N 59°53' E 030°13'0 0.0
2018-Apr-25 11:58N 59°53' E 030°13'0 0.0
2018-Apr-25 11:25N 59°53' E 030°13'0 0.0
2018-Apr-25 10:58N 59°53' E 030°13'0 0.0
2018-Apr-25 10:25N 59°53' E 030°13'0 0.0
2018-Apr-25 09:58N 59°53' E 030°13'0 0.0
2018-Apr-25 09:25N 59°53' E 030°13'0 0.0
2018-Apr-25 08:58N 59°53' E 030°13'0 0.0
2018-Apr-25 08:28N 59°53' E 030°13'0 0.0
2018-Apr-25 07:55N 59°53' E 030°13'0 0.0
2018-Apr-25 07:28N 59°53' E 030°13'0 0.0
2018-Apr-25 06:58N 59°53' E 030°13'0 0.0
2018-Apr-25 06:28N 59°53' E 030°13'0 0.0
2018-Apr-25 05:58N 59°53' E 030°13'0 0.0
2018-Apr-25 05:25N 59°53' E 030°13'0 0.0
2018-Apr-25 04:55N 59°53' E 030°13'0 0.0
2018-Apr-25 04:28N 59°53' E 030°13'0 0.0
2018-Apr-25 03:58N 59°53' E 030°13'0 0.0
2018-Apr-25 03:13N 59°53' E 030°13'0 0.0
2018-Apr-25 02:43N 59°53' E 030°13'0 0.0
2018-Apr-25 01:03N 59°53' E 030°13'0 0.0
2018-Apr-25 00:43N 59°53' E 030°13'0 0.0
2018-Apr-25 00:25N 59°53' E 030°13'0 0.0
2018-Apr-24 23:58N 59°53' E 030°13'0 0.0
2018-Apr-24 23:22N 59°53' E 030°13'0 0.0
2018-Apr-24 22:49N 59°53' E 030°13'0 0.0
2018-Apr-24 22:19N 59°53' E 030°13'0 0.0
2018-Apr-24 21:58N 59°53' E 030°13'0 0.0
2018-Apr-24 21:28N 59°53' E 030°13'0 0.0
2018-Apr-24 20:58N 59°53' E 030°13'0 0.0
2018-Apr-24 20:29N 59°53' E 030°13'0 0.0
2018-Apr-24 19:56N 59°53' E 030°13'0 0.0
2018-Apr-24 19:28N 59°53' E 030°13'0 0.0
2018-Apr-24 18:58N 59°53' E 030°13'0 0.0
2018-Apr-24 18:28N 59°53' E 030°13'0 0.0
2018-Apr-24 17:55N 59°53' E 030°13'0 0.0
2018-Apr-24 17:28N 59°53' E 030°13'0 0.0
2018-Apr-24 16:58N 59°53' E 030°13'0 0.0
2018-Apr-24 16:28N 59°53' E 030°13'0 0.0
2018-Apr-24 16:00N 59°53' E 030°13'1 1.3
2018-Apr-24 15:30N 59°53' E 030°13'3 6.3
2018-Apr-24 15:00N 59°54' E 030°07'4 8.9
2018-Apr-24 14:30N 59°56' E 029°59'510.5
2018-Apr-24 14:00N 59°57' E 029°49'5 9.3
2018-Apr-24 13:29N 59°60' E 029°40'11 1.7
2018-Apr-24 07:20N 60°01' E 029°19'0 0.0
2018-Apr-24 07:00N 60°01' E 029°19'0 0.0
2018-Apr-24 05:41N 60°01' E 029°19'0 0.0
2018-Apr-24 05:31N 60°01' E 029°19'0 0.0
2018-Apr-24 05:00N 60°01' E 029°19'0 0.0
2018-Apr-24 04:30N 60°01' E 029°19'0 0.0
2018-Apr-24 04:00N 60°01' E 029°19'4 6.0
2018-Apr-24 03:25N 60°02' E 029°12'512.4
2018-Apr-24 02:59N 60°02' E 029°02'612.6
2018-Apr-24 02:31N 60°02' E 028°50'612.3
2018-Apr-24 02:00N 60°02' E 028°37'611.9
2018-Apr-24 01:30N 60°03' E 028°26'611.7
2018-Apr-24 01:01N 60°07' E 028°17'612.0
2018-Apr-24 00:30N 60°09' E 028°05'611.9
2018-Apr-24 00:00N 60°10' E 027°54'611.3
2018-Apr-23 23:30N 60°10' E 027°42'612.5
2018-Apr-23 23:00N 60°07' E 027°32'612.4
2018-Apr-23 22:30N 60°03' E 027°21'612.4
2018-Apr-23 22:00N 60°00' E 027°11'611.8
2018-Apr-23 21:30N 59°58' E 026°59'612.4
2018-Apr-23 21:00N 59°59' E 026°47'611.8
2018-Apr-23 20:30N 59°59' E 026°36'5 9.7
2018-Apr-23 20:01N 59°55' E 026°29'713.1
2018-Apr-23 19:30N 59°49' E 026°31'611.7
2018-Apr-23 19:01N 59°44' E 026°39'713.3
2018-Apr-23 18:30N 59°41' E 026°51'613.1
2018-Apr-23 18:00N 59°39' E 027°02'612.9
2018-Apr-23 17:31N 59°36' E 027°14'612.9
2018-Apr-23 17:00N 59°33' E 027°25'713.1
2018-Apr-23 16:30N 59°30' E 027°37'510.5
2018-Apr-23 16:00N 59°26' E 027°44'1 1.6
2018-Apr-23 15:30N 59°25' E 027°44'0 0.0
2018-Apr-23 14:58N 59°25' E 027°44'0 0.0
2018-Apr-23 14:25N 59°25' E 027°44'0 0.0
2018-Apr-23 13:58N 59°25' E 027°44'0 0.0
2018-Apr-23 13:28N 59°25' E 027°44'0 0.0
2018-Apr-23 12:49N 59°25' E 027°44'0 0.0
2018-Apr-23 12:19N 59°25' E 027°44'0 0.0
2018-Apr-23 11:52N 59°25' E 027°44'0 0.0
2018-Apr-23 11:22N 59°25' E 027°44'0 0.0
2018-Apr-23 10:55N 59°25' E 027°44'0 0.0
2018-Apr-23 10:28N 59°25' E 027°44'0 0.0
2018-Apr-23 09:55N 59°25' E 027°44'0 0.0
2018-Apr-23 09:25N 59°25' E 027°44'0 0.0
2018-Apr-23 08:58N 59°25' E 027°44'0 0.0
2018-Apr-23 08:28N 59°25' E 027°44'0 0.0
2018-Apr-23 07:58N 59°25' E 027°44'0 0.0
2018-Apr-23 07:28N 59°25' E 027°44'0 0.0
2018-Apr-23 06:58N 59°25' E 027°44'0 0.0
2018-Apr-23 06:28N 59°25' E 027°44'0 0.0
2018-Apr-23 05:58N 59°25' E 027°44'0 0.0
2018-Apr-23 05:28N 59°25' E 027°44'0 0.0
2018-Apr-23 04:58N 59°25' E 027°44'0 0.0
2018-Apr-23 04:28N 59°25' E 027°44'0 0.0
2018-Apr-23 03:58N 59°25' E 027°44'0 0.0
2018-Apr-23 03:28N 59°25' E 027°44'0 0.0
2018-Apr-23 02:49N 59°25' E 027°44'0 0.0
2018-Apr-23 02:25N 59°25' E 027°44'0 0.0
2018-Apr-23 01:58N 59°25' E 027°44'0 0.0
2018-Apr-23 01:25N 59°25' E 027°44'0 0.0
2018-Apr-23 00:58N 59°25' E 027°44'0 0.0
2018-Apr-23 00:28N 59°25' E 027°44'0 0.0
2018-Apr-22 23:58N 59°25' E 027°44'0 0.0
2018-Apr-22 23:28N 59°25' E 027°44'0 0.0
2018-Apr-22 22:58N 59°25' E 027°44'0 0.0
2018-Apr-22 22:28N 59°25' E 027°44'0 0.0
2018-Apr-22 21:58N 59°25' E 027°44'0 0.0
2018-Apr-22 21:25N 59°25' E 027°44'0 0.0
2018-Apr-22 20:58N 59°25' E 027°44'0 0.0
2018-Apr-22 20:28N 59°25' E 027°44'0 0.0
2018-Apr-22 19:55N 59°25' E 027°44'0 0.0
2018-Apr-22 19:22N 59°25' E 027°44'0 0.0
2018-Apr-22 18:55N 59°25' E 027°44'0 0.0
2018-Apr-22 18:28N 59°25' E 027°44'0 0.0
2018-Apr-22 17:58N 59°25' E 027°44'0 0.0
2018-Apr-22 17:28N 59°25' E 027°44'0 0.0
2018-Apr-22 16:43N 59°25' E 027°44'0 0.0
2018-Apr-22 16:28N 59°25' E 027°44'0 0.0
2018-Apr-22 15:58N 59°25' E 027°44'0 0.0
2018-Apr-22 15:28N 59°25' E 027°44'0 0.0
2018-Apr-22 14:58N 59°25' E 027°44'0 0.0
2018-Apr-22 14:30N 59°25' E 027°44'1 1.7
2018-Apr-22 14:00N 59°26' E 027°44'3 5.9
2018-Apr-22 13:30N 59°29' E 027°43'1 1.4
2018-Apr-22 12:58N 59°30' E 027°42'0 0.1
2018-Apr-22 12:28N 59°30' E 027°42'0 0.0
2018-Apr-22 11:34N 59°30' E 027°42'0 0.0
2018-Apr-22 11:19N 59°30' E 027°42'0 0.0
2018-Apr-22 10:49N 59°30' E 027°42'0 0.0
2018-Apr-22 10:22N 59°30' E 027°42'0 0.0
2018-Apr-22 09:52N 59°30' E 027°42'0 0.0
2018-Apr-22 09:22N 59°30' E 027°42'0 0.0
2018-Apr-22 08:46N 59°30' E 027°42'0 0.0
2018-Apr-22 08:22N 59°30' E 027°42'0 0.1
2018-Apr-22 07:52N 59°30' E 027°42'0 0.0
2018-Apr-22 07:25N 59°30' E 027°42'0 0.0
2018-Apr-22 06:55N 59°30' E 027°42'0 0.0
2018-Apr-22 06:25N 59°30' E 027°42'0 0.0
2018-Apr-22 05:55N 59°30' E 027°42'0 0.0
2018-Apr-22 05:25N 59°30' E 027°42'0 0.1
2018-Apr-22 04:55N 59°30' E 027°42'0 0.0
2018-Apr-22 04:22N 59°30' E 027°42'0 0.0
2018-Apr-22 03:58N 59°30' E 027°42'0 0.0
2018-Apr-22 03:28N 59°30' E 027°42'0 0.0
2018-Apr-22 02:58N 59°30' E 027°42'0 0.0
2018-Apr-22 02:28N 59°30' E 027°42'0 0.0
2018-Apr-22 01:58N 59°30' E 027°42'0 0.0
2018-Apr-22 01:28N 59°30' E 027°42'0 0.1
2018-Apr-22 01:00N 59°30' E 027°42'1 2.9
2018-Apr-22 00:31N 59°30' E 027°40'5 9.7
2018-Apr-22 00:00N 59°32' E 027°31'611.7
2018-Apr-21 23:30N 59°34' E 027°20'611.7
2018-Apr-21 23:00N 59°37' E 027°10'611.7
2018-Apr-21 22:30N 59°39' E 026°60'611.8
2018-Apr-21 22:00N 59°42' E 026°49'611.9
2018-Apr-21 21:30N 59°45' E 026°38'510.6
2018-Apr-21 21:01N 59°49' E 026°32'611.7
2018-Apr-21 20:30N 59°54' E 026°30'611.6
2018-Apr-21 20:00N 60°00' E 026°29'5 9.6
2018-Apr-21 19:30N 60°01' E 026°39'611.1
2018-Apr-21 18:59N 60°00' E 026°50'511.0
2018-Apr-21 18:30N 59°59' E 027°01'510.5
2018-Apr-21 18:00N 60°02' E 027°10'611.2
2018-Apr-21 17:30N 60°05' E 027°20'611.5
2018-Apr-21 17:01N 60°08' E 027°29'611.5
2018-Apr-21 16:30N 60°11' E 027°39'510.8
2018-Apr-21 16:00N 60°11' E 027°50'611.7
2018-Apr-21 15:30N 60°10' E 028°02'611.7
2018-Apr-21 15:00N 60°09' E 028°13'611.3
2018-Apr-21 14:30N 60°06' E 028°23'611.2
2018-Apr-21 14:00N 60°03' E 028°33'611.8
2018-Apr-21 13:30N 60°03' E 028°44'611.6
2018-Apr-21 12:57N 60°03' E 028°57'1610.4
2018-Apr-21 11:23N 60°02' E 029°30'410.6
2018-Apr-21 10:59N 60°00' E 029°38'4 9.3
2018-Apr-21 10:30N 59°58' E 029°46'610.2
2018-Apr-21 09:54N 59°56' E 029°57'410.2
2018-Apr-21 09:30N 59°54' E 030°05'3 6.0
2018-Apr-21 09:00N 59°53' E 030°10'2 2.0
2018-Apr-21 08:13N 59°53' E 030°13'0 0.0
2018-Apr-21 07:58N 59°53' E 030°13'0 0.0
2018-Apr-21 07:25N 59°53' E 030°13'0 0.0
2018-Apr-21 06:55N 59°53' E 030°13'0 0.0
2018-Apr-21 06:25N 59°53' E 030°13'0 0.0
2018-Apr-21 05:56N 59°53' E 030°13'0 0.0
2018-Apr-21 05:29N 59°53' E 030°13'0 0.0
2018-Apr-21 04:57N 59°53' E 030°13'0 0.0
2018-Apr-21 04:28N 59°53' E 030°13'0 0.0
2018-Apr-21 03:56N 59°53' E 030°13'0 0.0
2018-Apr-21 02:56N 59°53' E 030°13'0 0.0
2018-Apr-21 01:45N 59°53' E 030°13'0 0.0
2018-Apr-21 01:23N 59°53' E 030°13'0 0.0
2018-Apr-21 00:58N 59°53' E 030°13'0 0.0
2018-Apr-21 00:26N 59°53' E 030°13'0 0.0
2018-Apr-20 23:46N 59°53' E 030°13'0 0.0
2018-Apr-20 23:22N 59°53' E 030°13'0 0.0
2018-Apr-20 22:58N 59°53' E 030°13'0 0.0
2018-Apr-20 22:22N 59°53' E 030°13'0 0.0
2018-Apr-20 21:55N 59°53' E 030°13'0 0.0
2018-Apr-20 21:28N 59°53' E 030°13'0 0.0
2018-Apr-20 20:58N 59°53' E 030°13'0 0.0
2018-Apr-20 20:25N 59°53' E 030°13'0 0.0
2018-Apr-20 19:58N 59°53' E 030°13'0 0.0
2018-Apr-20 19:28N 59°53' E 030°13'0 0.0
2018-Apr-20 18:58N 59°53' E 030°13'0 0.0
2018-Apr-20 18:28N 59°53' E 030°13'0 0.0
2018-Apr-20 17:55N 59°53' E 030°13'0 0.0
2018-Apr-20 17:28N 59°53' E 030°13'0 0.0
2018-Apr-20 16:58N 59°53' E 030°13'0 0.0
2018-Apr-20 16:13N 59°53' E 030°13'0 0.0
2018-Apr-20 15:58N 59°53' E 030°13'0 0.0
2018-Apr-20 15:28N 59°53' E 030°13'0 0.0
2018-Apr-20 14:55N 59°53' E 030°13'0 0.0
2018-Apr-20 14:28N 59°53' E 030°13'0 0.0
2018-Apr-20 13:58N 59°53' E 030°13'0 0.0
2018-Apr-20 13:28N 59°53' E 030°13'0 0.0
2018-Apr-20 12:58N 59°53' E 030°13'0 0.0
2018-Apr-20 12:22N 59°53' E 030°13'0 0.0
2018-Apr-20 11:58N 59°53' E 030°13'0 0.0
2018-Apr-20 11:28N 59°53' E 030°13'0 0.0
2018-Apr-20 10:58N 59°53' E 030°13'0 0.0
2018-Apr-20 10:25N 59°53' E 030°13'0 0.0
2018-Apr-20 09:58N 59°53' E 030°13'0 0.0
2018-Apr-20 09:28N 59°53' E 030°13'0 0.0
2018-Apr-20 08:58N 59°53' E 030°13'0 0.0
2018-Apr-20 08:28N 59°53' E 030°13'0 0.0
2018-Apr-20 07:55N 59°53' E 030°13'0 0.0
2018-Apr-20 07:28N 59°53' E 030°13'0 0.0
2018-Apr-20 06:58N 59°53' E 030°13'0 0.0
2018-Apr-20 06:22N 59°53' E 030°13'0 0.0
2018-Apr-20 05:58N 59°53' E 030°13'0 0.0
2018-Apr-20 05:28N 59°53' E 030°13'0 0.0
2018-Apr-20 04:58N 59°53' E 030°13'0 0.0
2018-Apr-20 04:16N 59°53' E 030°13'0 0.0
2018-Apr-20 03:58N 59°53' E 030°13'0 0.0
2018-Apr-20 03:28N 59°53' E 030°13'0 0.0
2018-Apr-20 02:46N 59°53' E 030°13'0 0.0
2018-Apr-20 02:10N 59°53' E 030°13'0 0.0
2018-Apr-20 01:58N 59°53' E 030°13'0 0.0
2018-Apr-20 01:28N 59°53' E 030°13'0 0.0
2018-Apr-20 00:55N 59°53' E 030°13'0 0.0
2018-Apr-20 00:25N 59°53' E 030°13'0 0.0
2018-Apr-19 23:58N 59°53' E 030°13'0 0.0
2018-Apr-19 23:28N 59°53' E 030°13'0 0.0
2018-Apr-19 22:58N 59°53' E 030°13'0 0.0
2018-Apr-19 22:28N 59°53' E 030°13'0 0.0
2018-Apr-19 21:58N 59°53' E 030°13'0 0.0
2018-Apr-19 21:28N 59°53' E 030°13'0 0.0
2018-Apr-19 20:49N 59°53' E 030°13'0 0.0
2018-Apr-19 20:25N 59°53' E 030°13'0 0.0
2018-Apr-19 19:47N 59°53' E 030°13'0 0.0
2018-Apr-19 19:05N 59°53' E 030°13'0 0.0
2018-Apr-19 18:57N 59°53' E 030°13'0 0.0
2018-Apr-19 18:16N 59°53' E 030°13'0 0.0
2018-Apr-19 17:47N 59°53' E 030°13'0 0.0
2018-Apr-19 16:55N 59°53' E 030°13'0 0.0
2018-Apr-19 16:30N 59°53' E 030°13'0 0.0
2018-Apr-19 15:52N 59°53' E 030°13'0 0.0
2018-Apr-19 15:23N 59°53' E 030°13'0 0.0
2018-Apr-19 14:58N 59°53' E 030°13'0 0.0
2018-Apr-19 14:28N 59°53' E 030°13'0 0.0
2018-Apr-19 13:49N 59°53' E 030°13'0 0.0
2018-Apr-19 13:25N 59°53' E 030°13'0 0.0
2018-Apr-19 12:58N 59°53' E 030°13'0 0.0
2018-Apr-19 12:28N 59°53' E 030°13'0 0.0
2018-Apr-19 11:55N 59°53' E 030°13'0 0.1
2018-Apr-19 11:28N 59°53' E 030°13'0 0.1
2018-Apr-19 10:55N 59°53' E 030°13'0 0.0
2018-Apr-19 10:22N 59°53' E 030°13'0 0.0
2018-Apr-19 09:58N 59°53' E 030°13'0 0.0
2018-Apr-19 09:22N 59°53' E 030°13'0 0.0
2018-Apr-19 08:58N 59°53' E 030°13'0 0.0
2018-Apr-19 08:28N 59°53' E 030°13'0 0.0
2018-Apr-19 07:58N 59°53' E 030°13'0 0.0
2018-Apr-19 07:28N 59°53' E 030°13'0 0.0
2018-Apr-19 06:58N 59°53' E 030°13'0 0.1
2018-Apr-19 06:30N 59°53' E 030°13'2 3.8
2018-Apr-19 06:00N 59°53' E 030°10'4 7.4
2018-Apr-19 05:30N 59°55' E 030°03'5 9.7
2018-Apr-19 04:59N 59°57' E 029°54'5 9.0
2018-Apr-19 04:29N 59°59' E 029°46'610.0
2018-Apr-19 03:56N 60°01' E 029°35'611.8
2018-Apr-19 03:26N 60°02' E 029°24'613.0
2018-Apr-19 03:01N 60°02' E 029°13'712.9
2018-Apr-19 02:30N 60°02' E 028°59'713.4
2018-Apr-19 02:00N 60°02' E 028°46'713.5
2018-Apr-19 01:30N 60°03' E 028°33'612.8
2018-Apr-19 01:00N 60°05' E 028°21'612.9
2018-Apr-19 00:30N 60°08' E 028°10'713.1
2018-Apr-19 00:01N 60°10' E 027°57'612.5
2018-Apr-18 23:30N 60°10' E 027°44'713.2
2018-Apr-18 23:01N 60°07' E 027°33'713.3
2018-Apr-18 22:30N 60°03' E 027°22'714.3
2018-Apr-18 21:59N 59°59' E 027°09'611.6
2018-Apr-18 21:30N 59°58' E 026°58'713.2
2018-Apr-18 21:00N 59°59' E 026°45'612.9
2018-Apr-18 20:30N 59°58' E 026°33'510.8
2018-Apr-18 20:00N 59°53' E 026°30'612.8
2018-Apr-18 19:30N 59°47' E 026°32'611.4
2018-Apr-18 19:00N 59°44' E 026°42'611.6
2018-Apr-18 18:30N 59°41' E 026°52'611.4
2018-Apr-18 18:00N 59°39' E 027°02'612.1
2018-Apr-18 17:30N 59°36' E 027°13'612.4
2018-Apr-18 16:59N 59°33' E 027°25'612.3
2018-Apr-18 16:30N 59°31' E 027°35'510.7
2018-Apr-18 16:00N 59°27' E 027°43'2 3.6
2018-Apr-18 15:30N 59°25' E 027°44'0 0.0
2018-Apr-18 15:00N 59°25' E 027°44'0 0.0
2018-Apr-18 14:30N 59°25' E 027°44'0 0.0
2018-Apr-18 13:58N 59°25' E 027°44'0 0.0
2018-Apr-18 13:28N 59°25' E 027°44'0 0.0
2018-Apr-18 12:13N 59°25' E 027°44'0 0.0
2018-Apr-18 11:13N 59°25' E 027°44'0 0.0
2018-Apr-18 10:55N 59°25' E 027°44'0 0.0
2018-Apr-18 10:29N 59°25' E 027°44'0 0.0
2018-Apr-18 09:58N 59°25' E 027°44'0 0.0
2018-Apr-18 09:28N 59°25' E 027°44'0 0.0
2018-Apr-18 08:55N 59°25' E 027°44'0 0.0
2018-Apr-18 08:25N 59°25' E 027°44'0 0.0
2018-Apr-18 07:58N 59°25' E 027°44'0 0.0
2018-Apr-18 07:28N 59°25' E 027°44'0 0.0
2018-Apr-18 06:58N 59°25' E 027°44'0 0.0
2018-Apr-18 06:25N 59°25' E 027°44'0 0.0
2018-Apr-18 05:58N 59°25' E 027°44'0 0.0
2018-Apr-18 05:28N 59°25' E 027°44'0 0.0
2018-Apr-18 04:13N 59°25' E 027°44'0 0.0
2018-Apr-18 03:58N 59°25' E 027°44'0 0.0
2018-Apr-18 03:28N 59°25' E 027°44'0 0.0
2018-Apr-18 02:55N 59°25' E 027°44'0 0.0
2018-Apr-18 02:01N 59°25' E 027°44'0 0.0
2018-Apr-18 01:49N 59°25' E 027°44'0 0.0
2018-Apr-18 01:07N 59°25' E 027°44'0 0.0
2018-Apr-18 00:52N 59°25' E 027°44'0 0.0
2018-Apr-18 00:25N 59°25' E 027°44'0 0.0
2018-Apr-17 23:52N 59°25' E 027°44'0 0.0
2018-Apr-17 23:22N 59°25' E 027°44'0 0.0
2018-Apr-17 22:55N 59°25' E 027°44'0 0.0
2018-Apr-17 22:10N 59°25' E 027°44'0 0.0
2018-Apr-17 21:52N 59°25' E 027°44'0 0.0
2018-Apr-17 21:25N 59°25' E 027°44'0 0.0
2018-Apr-17 20:04N 59°25' E 027°44'0 0.0
2018-Apr-17 19:58N 59°25' E 027°44'0 0.0
2018-Apr-17 19:28N 59°25' E 027°44'0 0.0
2018-Apr-17 18:58N 59°25' E 027°44'0 0.0
2018-Apr-17 18:28N 59°25' E 027°44'0 0.0
2018-Apr-17 17:58N 59°25' E 027°44'0 0.0
2018-Apr-17 17:28N 59°25' E 027°44'0 0.0
2018-Apr-17 16:58N 59°25' E 027°44'0 0.0
2018-Apr-17 16:28N 59°25' E 027°44'0 0.0
2018-Apr-17 15:58N 59°25' E 027°44'0 0.0
2018-Apr-17 15:25N 59°25' E 027°44'0 0.0
2018-Apr-17 14:58N 59°25' E 027°44'0 0.0
2018-Apr-17 14:28N 59°25' E 027°44'0 0.0
2018-Apr-17 14:00N 59°25' E 027°44'0 0.0
2018-Apr-17 13:30N 59°25' E 027°44'0 0.3
2018-Apr-17 13:00N 59°26' E 027°44'2 4.2
2018-Apr-17 12:30N 59°27' E 027°42'5 9.8
2018-Apr-17 12:00N 59°31' E 027°35'611.2
2018-Apr-17 11:30N 59°33' E 027°25'611.8
2018-Apr-17 11:00N 59°36' E 027°15'611.9
2018-Apr-17 10:30N 59°38' E 027°04'611.9
2018-Apr-17 10:00N 59°41' E 026°53'611.8
2018-Apr-17 09:30N 59°43' E 026°43'611.6
2018-Apr-17 09:00N 59°46' E 026°33'611.3
2018-Apr-17 08:30N 59°51' E 026°31'611.4
2018-Apr-17 08:00N 59°57' E 026°29'5 9.1
2018-Apr-17 07:30N 60°01' E 026°33'511.0
2018-Apr-17 07:00N 60°01' E 026°44'611.2
2018-Apr-17 06:30N 59°60' E 026°55'510.5
2018-Apr-17 06:00N 60°00' E 027°06'611.3
2018-Apr-17 05:30N 60°03' E 027°15'611.4
2018-Apr-17 05:00N 60°06' E 027°25'611.5
2018-Apr-17 04:30N 60°09' E 027°35'611.6
2018-Apr-17 04:00N 60°12' E 027°45'611.7
2018-Apr-17 03:30N 60°11' E 027°57'611.8
2018-Apr-17 03:00N 60°09' E 028°08'611.4
2018-Apr-17 02:30N 60°07' E 028°19'611.6
2018-Apr-17 02:00N 60°04' E 028°28'611.5
2018-Apr-17 01:30N 60°03' E 028°40'611.6
2018-Apr-17 01:00N 60°03' E 028°51'611.8
2018-Apr-17 00:30N 60°02' E 029°03'612.1
2018-Apr-16 23:59N 60°02' E 029°16'611.9
2018-Apr-16 23:28N 60°02' E 029°28'511.3
2018-Apr-16 23:00N 60°00' E 029°38'510.0
2018-Apr-16 22:30N 59°58' E 029°47'611.2
2018-Apr-16 22:00N 59°56' E 029°57'5 9.7
2018-Apr-16 21:30N 59°54' E 030°06'3 6.3
2018-Apr-16 21:00N 59°53' E 030°12'1 1.6
2018-Apr-16 20:30N 59°53' E 030°13'0 0.0
2018-Apr-16 20:00N 59°53' E 030°13'0 0.0
2018-Apr-16 19:28N 59°53' E 030°13'0 0.0
2018-Apr-16 18:55N 59°53' E 030°13'0 0.0
2018-Apr-16 18:28N 59°53' E 030°13'0 0.0
2018-Apr-16 17:58N 59°53' E 030°13'0 0.0
2018-Apr-16 17:28N 59°53' E 030°13'0 0.0
2018-Apr-16 16:58N 59°53' E 030°13'0 0.0
2018-Apr-16 16:25N 59°53' E 030°13'0 0.0
2018-Apr-16 15:58N 59°53' E 030°13'0 0.0
2018-Apr-16 15:28N 59°53' E 030°13'0 0.0
2018-Apr-16 14:58N 59°53' E 030°13'0 0.0
2018-Apr-16 14:28N 59°53' E 030°13'0 0.0
2018-Apr-16 13:55N 59°53' E 030°13'0 0.0
2018-Apr-16 13:28N 59°53' E 030°13'0 0.0
2018-Apr-16 12:58N 59°53' E 030°13'0 0.0
2018-Apr-16 12:28N 59°53' E 030°13'0 0.0
2018-Apr-16 11:55N 59°53' E 030°13'0 0.0
2018-Apr-16 11:25N 59°53' E 030°13'0 0.0
2018-Apr-16 10:58N 59°53' E 030°13'0 0.0
2018-Apr-16 10:28N 59°53' E 030°13'0 0.0
2018-Apr-16 09:52N 59°53' E 030°13'0 0.0
2018-Apr-16 09:28N 59°53' E 030°13'0 0.0
2018-Apr-16 08:58N 59°53' E 030°13'0 0.0
2018-Apr-16 08:28N 59°53' E 030°13'0 0.0
2018-Apr-16 07:58N 59°53' E 030°13'0 0.0
2018-Apr-16 07:28N 59°53' E 030°13'0 0.0
2018-Apr-16 06:58N 59°53' E 030°13'0 0.0
2018-Apr-16 06:28N 59°53' E 030°13'0 0.0
2018-Apr-16 05:55N 59°53' E 030°13'0 0.0
2018-Apr-16 05:28N 59°53' E 030°13'0 0.0
2018-Apr-16 04:58N 59°53' E 030°13'0 0.0
2018-Apr-16 04:28N 59°53' E 030°13'0 0.0
2018-Apr-16 03:55N 59°53' E 030°13'0 0.0
2018-Apr-16 03:28N 59°53' E 030°13'0 0.0
2018-Apr-16 02:58N 59°53' E 030°13'0 0.0
2018-Apr-16 02:28N 59°53' E 030°13'0 0.0
2018-Apr-16 01:55N 59°53' E 030°13'0 0.0
2018-Apr-16 01:28N 59°53' E 030°13'0 0.0
2018-Apr-16 00:58N 59°53' E 030°13'0 0.0
2018-Apr-16 00:28N 59°53' E 030°13'  

Dump ship's entire track history